sensor_id;sensor_type;location;lat;lon;timestamp;P1;durP1;ratioP1;P2;durP2;ratioP2
77864;SDS011;67061;48.524;9.040;2023-04-25T00:02:31;5.75;;;3.40;;
77864;SDS011;67061;48.524;9.040;2023-04-25T00:05:20;5.80;;;3.13;;
77864;SDS011;67061;48.524;9.040;2023-04-25T00:08:08;4.53;;;2.88;;
77864;SDS011;67061;48.524;9.040;2023-04-25T00:10:55;6.70;;;3.25;;
77864;SDS011;67061;48.524;9.040;2023-04-25T00:13:43;4.38;;;2.88;;
77864;SDS011;67061;48.524;9.040;2023-04-25T00:16:33;5.93;;;3.40;;
77864;SDS011;67061;48.524;9.040;2023-04-25T00:19:20;5.15;;;3.08;;
77864;SDS011;67061;48.524;9.040;2023-04-25T00:22:07;7.22;;;3.10;;
77864;SDS011;67061;48.524;9.040;2023-04-25T00:24:55;5.63;;;2.88;;
77864;SDS011;67061;48.524;9.040;2023-04-25T00:27:45;5.57;;;3.13;;
77864;SDS011;67061;48.524;9.040;2023-04-25T00:30:32;6.38;;;3.83;;
77864;SDS011;67061;48.524;9.040;2023-04-25T00:33:21;5.68;;;2.42;;
77864;SDS011;67061;48.524;9.040;2023-04-25T00:36:08;5.43;;;2.97;;
77864;SDS011;67061;48.524;9.040;2023-04-25T00:38:56;3.90;;;2.42;;
77864;SDS011;67061;48.524;9.040;2023-04-25T00:41:44;5.60;;;3.00;;
77864;SDS011;67061;48.524;9.040;2023-04-25T00:44:31;4.90;;;2.80;;
77864;SDS011;67061;48.524;9.040;2023-04-25T00:47:20;4.55;;;2.97;;
77864;SDS011;67061;48.524;9.040;2023-04-25T00:50:09;6.65;;;2.88;;
77864;SDS011;67061;48.524;9.040;2023-04-25T00:52:57;6.07;;;2.63;;
77864;SDS011;67061;48.524;9.040;2023-04-25T00:55:44;4.50;;;2.67;;
77864;SDS011;67061;48.524;9.040;2023-04-25T00:58:32;5.45;;;2.55;;
77864;SDS011;67061;48.524;9.040;2023-04-25T01:01:19;4.50;;;2.80;;
77864;SDS011;67061;48.524;9.040;2023-04-25T01:04:07;5.32;;;3.08;;
77864;SDS011;67061;48.524;9.040;2023-04-25T01:06:55;5.15;;;3.00;;
77864;SDS011;67061;48.524;9.040;2023-04-25T01:09:43;4.22;;;2.72;;
77864;SDS011;67061;48.524;9.040;2023-04-25T01:12:30;4.60;;;2.88;;
77864;SDS011;67061;48.524;9.040;2023-04-25T01:15:17;4.88;;;2.75;;
77864;SDS011;67061;48.524;9.040;2023-04-25T01:18:05;4.88;;;2.70;;
77864;SDS011;67061;48.524;9.040;2023-04-25T01:20:53;5.03;;;3.13;;
77864;SDS011;67061;48.524;9.040;2023-04-25T01:23:42;6.32;;;3.20;;
77864;SDS011;67061;48.524;9.040;2023-04-25T01:26:29;5.25;;;2.80;;
77864;SDS011;67061;48.524;9.040;2023-04-25T01:29:17;4.97;;;2.78;;
77864;SDS011;67061;48.524;9.040;2023-04-25T01:32:04;7.20;;;3.28;;
77864;SDS011;67061;48.524;9.040;2023-04-25T01:34:52;5.65;;;3.30;;
77864;SDS011;67061;48.524;9.040;2023-04-25T01:37:40;5.60;;;2.92;;
77864;SDS011;67061;48.524;9.040;2023-04-25T01:40:29;6.03;;;3.05;;
77864;SDS011;67061;48.524;9.040;2023-04-25T01:43:18;5.50;;;3.05;;
77864;SDS011;67061;48.524;9.040;2023-04-25T01:46:05;5.82;;;3.00;;
77864;SDS011;67061;48.524;9.040;2023-04-25T01:48:52;4.93;;;2.92;;
77864;SDS011;67061;48.524;9.040;2023-04-25T01:51:40;4.40;;;2.90;;
77864;SDS011;67061;48.524;9.040;2023-04-25T01:54:27;5.72;;;2.55;;
77864;SDS011;67061;48.524;9.040;2023-04-25T01:57:16;7.15;;;3.22;;
77864;SDS011;67061;48.524;9.040;2023-04-25T02:00:04;8.18;;;2.95;;
77864;SDS011;67061;48.524;9.040;2023-04-25T02:02:56;8.90;;;3.95;;
77864;SDS011;67061;48.524;9.040;2023-04-25T02:05:44;4.63;;;2.90;;
77864;SDS011;67061;48.524;9.040;2023-04-25T02:08:31;6.07;;;3.20;;
77864;SDS011;67061;48.524;9.040;2023-04-25T02:11:18;5.50;;;3.13;;
77864;SDS011;67061;48.524;9.040;2023-04-25T02:14:07;4.70;;;3.17;;
77864;SDS011;67061;48.524;9.040;2023-04-25T02:19:42;5.07;;;3.05;;
77864;SDS011;67061;48.524;9.040;2023-04-25T02:22:30;5.07;;;3.22;;
77864;SDS011;67061;48.524;9.040;2023-04-25T02:25:17;5.53;;;2.92;;
77864;SDS011;67061;48.524;9.040;2023-04-25T02:28:05;8.57;;;3.83;;
77864;SDS011;67061;48.524;9.040;2023-04-25T02:30:53;5.25;;;2.78;;
77864;SDS011;67061;48.524;9.040;2023-04-25T02:36:28;6.32;;;3.40;;
77864;SDS011;67061;48.524;9.040;2023-04-25T02:39:17;7.05;;;3.05;;
77864;SDS011;67061;48.524;9.040;2023-04-25T02:42:07;5.82;;;3.15;;
77864;SDS011;67061;48.524;9.040;2023-04-25T02:44:54;5.78;;;3.03;;
77864;SDS011;67061;48.524;9.040;2023-04-25T02:47:43;5.88;;;3.38;;
77864;SDS011;67061;48.524;9.040;2023-04-25T02:50:30;7.88;;;3.65;;
77864;SDS011;67061;48.524;9.040;2023-04-25T02:53:17;5.30;;;3.03;;
77864;SDS011;67061;48.524;9.040;2023-04-25T02:56:04;5.10;;;2.83;;
77864;SDS011;67061;48.524;9.040;2023-04-25T02:58:52;5.15;;;3.15;;
77864;SDS011;67061;48.524;9.040;2023-04-25T03:01:39;6.32;;;3.00;;
77864;SDS011;67061;48.524;9.040;2023-04-25T03:04:28;5.22;;;3.05;;
77864;SDS011;67061;48.524;9.040;2023-04-25T03:07:15;5.07;;;3.10;;
77864;SDS011;67061;48.524;9.040;2023-04-25T03:10:02;6.78;;;5.05;;
77864;SDS011;67061;48.524;9.040;2023-04-25T03:15:38;5.30;;;2.70;;
77864;SDS011;67061;48.524;9.040;2023-04-25T03:18:25;6.68;;;3.33;;
77864;SDS011;67061;48.524;9.040;2023-04-25T03:21:14;5.97;;;3.65;;
77864;SDS011;67061;48.524;9.040;2023-04-25T03:24:01;5.28;;;3.22;;
77864;SDS011;67061;48.524;9.040;2023-04-25T03:26:50;6.57;;;3.83;;
77864;SDS011;67061;48.524;9.040;2023-04-25T03:29:37;6.50;;;3.45;;
77864;SDS011;67061;48.524;9.040;2023-04-25T03:32:24;6.32;;;3.90;;
77864;SDS011;67061;48.524;9.040;2023-04-25T03:35:11;7.03;;;3.97;;
77864;SDS011;67061;48.524;9.040;2023-04-25T03:38:00;6.80;;;3.38;;
77864;SDS011;67061;48.524;9.040;2023-04-25T03:40:47;5.70;;;3.08;;
77864;SDS011;67061;48.524;9.040;2023-04-25T03:43:34;5.60;;;3.22;;
77864;SDS011;67061;48.524;9.040;2023-04-25T03:46:21;5.55;;;3.50;;
77864;SDS011;67061;48.524;9.040;2023-04-25T03:49:08;6.35;;;3.20;;
77864;SDS011;67061;48.524;9.040;2023-04-25T03:51:56;5.70;;;3.13;;
77864;SDS011;67061;48.524;9.040;2023-04-25T03:54:44;5.60;;;4.47;;
77864;SDS011;67061;48.524;9.040;2023-04-25T03:57:31;4.85;;;3.05;;
77864;SDS011;67061;48.524;9.040;2023-04-25T04:00:19;5.10;;;3.20;;
77864;SDS011;67061;48.524;9.040;2023-04-25T04:03:06;4.88;;;2.92;;
77864;SDS011;67061;48.524;9.040;2023-04-25T04:05:54;5.63;;;2.83;;
77864;SDS011;67061;48.524;9.040;2023-04-25T04:08:41;7.80;;;3.63;;
77864;SDS011;67061;48.524;9.040;2023-04-25T04:11:30;5.75;;;4.15;;
77864;SDS011;67061;48.524;9.040;2023-04-25T04:14:17;6.50;;;3.08;;
77864;SDS011;67061;48.524;9.040;2023-04-25T04:17:04;4.63;;;2.70;;
77864;SDS011;67061;48.524;9.040;2023-04-25T04:19:52;8.20;;;3.00;;
77864;SDS011;67061;48.524;9.040;2023-04-25T04:22:40;4.88;;;2.80;;
77864;SDS011;67061;48.524;9.040;2023-04-25T04:25:27;7.43;;;3.70;;
77864;SDS011;67061;48.524;9.040;2023-04-25T04:28:16;8.35;;;3.80;;
77864;SDS011;67061;48.524;9.040;2023-04-25T04:33:51;6.00;;;2.70;;
77864;SDS011;67061;48.524;9.040;2023-04-25T04:36:38;6.68;;;2.95;;
77864;SDS011;67061;48.524;9.040;2023-04-25T04:39:26;8.18;;;3.38;;
77864;SDS011;67061;48.524;9.040;2023-04-25T04:42:14;6.22;;;2.80;;
77864;SDS011;67061;48.524;9.040;2023-04-25T04:45:02;5.80;;;3.00;;
77864;SDS011;67061;48.524;9.040;2023-04-25T04:47:50;7.60;;;2.80;;
77864;SDS011;67061;48.524;9.040;2023-04-25T04:50:37;5.15;;;2.80;;
77864;SDS011;67061;48.524;9.040;2023-04-25T04:53:25;5.03;;;2.50;;
77864;SDS011;67061;48.524;9.040;2023-04-25T04:56:12;6.63;;;3.50;;
77864;SDS011;67061;48.524;9.040;2023-04-25T04:59:00;5.45;;;3.25;;
77864;SDS011;67061;48.524;9.040;2023-04-25T05:01:48;6.97;;;2.60;;
77864;SDS011;67061;48.524;9.040;2023-04-25T05:07:22;4.00;;;2.22;;
77864;SDS011;67061;48.524;9.040;2023-04-25T05:10:10;7.45;;;2.50;;
77864;SDS011;67061;48.524;9.040;2023-04-25T05:12:57;4.43;;;2.40;;
77864;SDS011;67061;48.524;9.040;2023-04-25T05:15:44;4.57;;;2.58;;
77864;SDS011;67061;48.524;9.040;2023-04-25T05:18:33;6.35;;;2.40;;
77864;SDS011;67061;48.524;9.040;2023-04-25T05:21:21;4.40;;;2.22;;
77864;SDS011;67061;48.524;9.040;2023-04-25T05:24:08;5.53;;;2.60;;
77864;SDS011;67061;48.524;9.040;2023-04-25T05:26:56;5.22;;;2.60;;
77864;SDS011;67061;48.524;9.040;2023-04-25T05:29:43;5.68;;;2.90;;
77864;SDS011;67061;48.524;9.040;2023-04-25T05:32:30;5.82;;;3.00;;
77864;SDS011;67061;48.524;9.040;2023-04-25T05:35:19;5.30;;;3.28;;
77864;SDS011;67061;48.524;9.040;2023-04-25T05:38:06;7.75;;;3.15;;
77864;SDS011;67061;48.524;9.040;2023-04-25T05:40:53;6.13;;;3.08;;
77864;SDS011;67061;48.524;9.040;2023-04-25T05:43:41;6.75;;;3.03;;
77864;SDS011;67061;48.524;9.040;2023-04-25T05:46:32;5.13;;;3.05;;
77864;SDS011;67061;48.524;9.040;2023-04-25T05:49:19;5.78;;;2.78;;
77864;SDS011;67061;48.524;9.040;2023-04-25T05:52:08;5.28;;;3.03;;
77864;SDS011;67061;48.524;9.040;2023-04-25T05:57:42;5.25;;;2.40;;
77864;SDS011;67061;48.524;9.040;2023-04-25T06:00:30;5.32;;;3.78;;
77864;SDS011;67061;48.524;9.040;2023-04-25T06:03:17;4.35;;;2.50;;
77864;SDS011;67061;48.524;9.040;2023-04-25T06:06:05;5.93;;;2.30;;
77864;SDS011;67061;48.524;9.040;2023-04-25T06:08:54;5.60;;;2.70;;
77864;SDS011;67061;48.524;9.040;2023-04-25T06:11:41;6.35;;;2.28;;
77864;SDS011;67061;48.524;9.040;2023-04-25T06:14:28;3.78;;;1.90;;
77864;SDS011;67061;48.524;9.040;2023-04-25T06:17:15;3.10;;;1.70;;
77864;SDS011;67061;48.524;9.040;2023-04-25T06:20:03;5.15;;;2.28;;
77864;SDS011;67061;48.524;9.040;2023-04-25T06:22:51;3.60;;;2.22;;
77864;SDS011;67061;48.524;9.040;2023-04-25T06:25:40;2.58;;;1.20;;
77864;SDS011;67061;48.524;9.040;2023-04-25T06:31:14;4.25;;;1.77;;
77864;SDS011;67061;48.524;9.040;2023-04-25T06:34:01;3.78;;;1.70;;
77864;SDS011;67061;48.524;9.040;2023-04-25T06:36:48;6.03;;;1.55;;
77864;SDS011;67061;48.524;9.040;2023-04-25T06:39:35;3.15;;;1.20;;
77864;SDS011;67061;48.524;9.040;2023-04-25T06:42:24;2.70;;;1.38;;
77864;SDS011;67061;48.524;9.040;2023-04-25T06:47:58;3.35;;;1.50;;
77864;SDS011;67061;48.524;9.040;2023-04-25T06:50:45;3.30;;;1.25;;
77864;SDS011;67061;48.524;9.040;2023-04-25T06:53:33;3.05;;;1.67;;
77864;SDS011;67061;48.524;9.040;2023-04-25T06:56:20;4.18;;;1.55;;
77864;SDS011;67061;48.524;9.040;2023-04-25T06:59:10;3.50;;;1.90;;
77864;SDS011;67061;48.524;9.040;2023-04-25T07:04:44;2.42;;;1.52;;
77864;SDS011;67061;48.524;9.040;2023-04-25T07:07:31;4.63;;;1.85;;
77864;SDS011;67061;48.524;9.040;2023-04-25T07:10:18;3.72;;;1.85;;
77864;SDS011;67061;48.524;9.040;2023-04-25T07:13:06;3.95;;;1.80;;
77864;SDS011;67061;48.524;9.040;2023-04-25T07:15:55;3.28;;;1.52;;
77864;SDS011;67061;48.524;9.040;2023-04-25T07:21:30;2.92;;;1.52;;
77864;SDS011;67061;48.524;9.040;2023-04-25T07:24:17;4.57;;;1.80;;
77864;SDS011;67061;48.524;9.040;2023-04-25T07:27:05;3.33;;;1.55;;
77864;SDS011;67061;48.524;9.040;2023-04-25T07:29:52;5.50;;;1.80;;
77864;SDS011;67061;48.524;9.040;2023-04-25T07:32:41;3.13;;;1.50;;
77864;SDS011;67061;48.524;9.040;2023-04-25T07:38:15;4.82;;;2.20;;
77864;SDS011;67061;48.524;9.040;2023-04-25T07:41:02;4.00;;;1.80;;
77864;SDS011;67061;48.524;9.040;2023-04-25T07:43:50;4.68;;;2.65;;
77864;SDS011;67061;48.524;9.040;2023-04-25T07:46:37;3.78;;;2.33;;
77864;SDS011;67061;48.524;9.040;2023-04-25T07:49:25;4.72;;;2.38;;
77864;SDS011;67061;48.524;9.040;2023-04-25T07:52:12;5.35;;;2.70;;
77864;SDS011;67061;48.524;9.040;2023-04-25T07:55:00;4.60;;;2.20;;
77864;SDS011;67061;48.524;9.040;2023-04-25T07:57:46;5.60;;;2.25;;
77864;SDS011;67061;48.524;9.040;2023-04-25T08:00:13;4.00;;;2.10;;
77864;SDS011;67061;48.524;9.040;2023-04-25T08:02:41;4.95;;;2.33;;
77864;SDS011;67061;48.524;9.040;2023-04-25T08:05:09;4.90;;;2.50;;
77864;SDS011;67061;48.524;9.040;2023-04-25T08:07:39;5.38;;;2.17;;
77864;SDS011;67061;48.524;9.040;2023-04-25T08:10:07;9.95;;;3.10;;
77864;SDS011;67061;48.524;9.040;2023-04-25T08:12:34;7.32;;;2.33;;
77864;SDS011;67061;48.524;9.040;2023-04-25T08:15:01;9.43;;;3.33;;
77864;SDS011;67061;48.524;9.040;2023-04-25T08:17:28;10.48;;;3.42;;
77864;SDS011;67061;48.524;9.040;2023-04-25T08:19:55;4.13;;;2.53;;
77864;SDS011;67061;48.524;9.040;2023-04-25T08:22:24;5.70;;;2.20;;
77864;SDS011;67061;48.524;9.040;2023-04-25T08:24:51;5.45;;;2.22;;
77864;SDS011;67061;48.524;9.040;2023-04-25T08:27:18;3.33;;;2.40;;
77864;SDS011;67061;48.524;9.040;2023-04-25T08:29:46;5.20;;;2.00;;
77864;SDS011;67061;48.524;9.040;2023-04-25T08:32:13;4.40;;;2.58;;
77864;SDS011;67061;48.524;9.040;2023-04-25T08:34:40;4.50;;;3.10;;
77864;SDS011;67061;48.524;9.040;2023-04-25T08:37:08;6.15;;;2.90;;
77864;SDS011;67061;48.524;9.040;2023-04-25T08:39:37;5.10;;;2.50;;
77864;SDS011;67061;48.524;9.040;2023-04-25T08:42:05;5.78;;;2.88;;
77864;SDS011;67061;48.524;9.040;2023-04-25T08:44:33;4.32;;;2.80;;
77864;SDS011;67061;48.524;9.040;2023-04-25T08:47:01;4.97;;;2.45;;
77864;SDS011;67061;48.524;9.040;2023-04-25T08:49:30;16.42;;;3.88;;
77864;SDS011;67061;48.524;9.040;2023-04-25T08:51:59;5.57;;;2.85;;
77864;SDS011;67061;48.524;9.040;2023-04-25T08:54:27;4.18;;;2.33;;
77864;SDS011;67061;48.524;9.040;2023-04-25T08:56:57;4.30;;;2.25;;
77864;SDS011;67061;48.524;9.040;2023-04-25T08:59:28;5.20;;;2.40;;
77864;SDS011;67061;48.524;9.040;2023-04-25T09:01:56;4.28;;;2.08;;
77864;SDS011;67061;48.524;9.040;2023-04-25T09:04:23;11.38;;;5.75;;
77864;SDS011;67061;48.524;9.040;2023-04-25T09:06:51;5.13;;;2.33;;
77864;SDS011;67061;48.524;9.040;2023-04-25T09:09:17;4.25;;;2.47;;
77864;SDS011;67061;48.524;9.040;2023-04-25T09:11:44;5.55;;;3.13;;
77864;SDS011;67061;48.524;9.040;2023-04-25T09:14:13;2.90;;;1.73;;
77864;SDS011;67061;48.524;9.040;2023-04-25T09:16:57;3.05;;;1.80;;
77864;SDS011;67061;48.524;9.040;2023-04-25T09:19:29;3.72;;;2.25;;
77864;SDS011;67061;48.524;9.040;2023-04-25T09:21:59;4.40;;;2.45;;
77864;SDS011;67061;48.524;9.040;2023-04-25T09:24:34;6.65;;;2.80;;
77864;SDS011;67061;48.524;9.040;2023-04-25T09:29:31;5.50;;;2.75;;
77864;SDS011;67061;48.524;9.040;2023-04-25T09:32:16;5.47;;;2.78;;
77864;SDS011;67061;48.524;9.040;2023-04-25T09:34:45;14.35;;;3.60;;
77864;SDS011;67061;48.524;9.040;2023-04-25T09:37:18;20.65;;;4.43;;
77864;SDS011;67061;48.524;9.040;2023-04-25T09:39:46;5.55;;;3.50;;
77864;SDS011;67061;48.524;9.040;2023-04-25T09:42:14;4.47;;;2.50;;
77864;SDS011;67061;48.524;9.040;2023-04-25T09:44:44;7.57;;;3.10;;
77864;SDS011;67061;48.524;9.040;2023-04-25T09:47:13;6.60;;;2.70;;
77864;SDS011;67061;48.524;9.040;2023-04-25T09:49:41;7.30;;;3.10;;
77864;SDS011;67061;48.524;9.040;2023-04-25T09:52:09;4.35;;;2.60;;
77864;SDS011;67061;48.524;9.040;2023-04-25T09:54:39;4.97;;;2.00;;
77864;SDS011;67061;48.524;9.040;2023-04-25T09:57:08;6.00;;;2.90;;
77864;SDS011;67061;48.524;9.040;2023-04-25T09:59:38;7.78;;;2.10;;
77864;SDS011;67061;48.524;9.040;2023-04-25T10:02:08;3.72;;;1.17;;
77864;SDS011;67061;48.524;9.040;2023-04-25T10:04:37;4.25;;;1.13;;
77864;SDS011;67061;48.524;9.040;2023-04-25T10:07:05;4.32;;;0.65;;
77864;SDS011;67061;48.524;9.040;2023-04-25T10:09:33;1.75;;;0.65;;
77864;SDS011;67061;48.524;9.040;2023-04-25T10:12:04;2.90;;;0.90;;
77864;SDS011;67061;48.524;9.040;2023-04-25T10:14:32;2.78;;;0.50;;
77864;SDS011;67061;48.524;9.040;2023-04-25T10:17:00;1.85;;;0.55;;
77864;SDS011;67061;48.524;9.040;2023-04-25T10:19:28;3.67;;;0.98;;
77864;SDS011;67061;48.524;9.040;2023-04-25T10:21:58;1.83;;;0.60;;
77864;SDS011;67061;48.524;9.040;2023-04-25T10:24:32;3.92;;;0.68;;
77864;SDS011;67061;48.524;9.040;2023-04-25T10:26:59;5.18;;;1.13;;
77864;SDS011;67061;48.524;9.040;2023-04-25T10:29:27;3.60;;;0.70;;
77864;SDS011;67061;48.524;9.040;2023-04-25T10:31:54;2.63;;;0.90;;
77864;SDS011;67061;48.524;9.040;2023-04-25T10:34:23;18.85;;;2.85;;
77864;SDS011;67061;48.524;9.040;2023-04-25T10:37:04;5.18;;;0.98;;
77864;SDS011;67061;48.524;9.040;2023-04-25T10:39:34;1.88;;;0.57;;
77864;SDS011;67061;48.524;9.040;2023-04-25T10:42:02;1.42;;;0.52;;
77864;SDS011;67061;48.524;9.040;2023-04-25T10:44:29;1.17;;;0.40;;
77864;SDS011;67061;48.524;9.040;2023-04-25T10:46:57;0.93;;;0.17;;
77864;SDS011;67061;48.524;9.040;2023-04-25T10:49:32;0.73;;;0.20;;
77864;SDS011;67061;48.524;9.040;2023-04-25T10:52:14;4.53;;;0.45;;
77864;SDS011;67061;48.524;9.040;2023-04-25T10:54:51;0.73;;;0.30;;
77864;SDS011;67061;48.524;9.040;2023-04-25T10:57:32;0.63;;;0.05;;
77864;SDS011;67061;48.524;9.040;2023-04-25T11:00:07;0.98;;;0.20;;
77864;SDS011;67061;48.524;9.040;2023-04-25T11:02:37;0.82;;;0.10;;
77864;SDS011;67061;48.524;9.040;2023-04-25T11:05:07;1.83;;;1.17;;
77864;SDS011;67061;48.524;9.040;2023-04-25T11:07:37;0.93;;;0.20;;
77864;SDS011;67061;48.524;9.040;2023-04-25T11:10:09;1.85;;;0.25;;
77864;SDS011;67061;48.524;9.040;2023-04-25T11:12:36;1.50;;;0.30;;
77864;SDS011;67061;48.524;9.040;2023-04-25T11:15:03;1.10;;;0.30;;
77864;SDS011;67061;48.524;9.040;2023-04-25T11:17:31;1.55;;;0.32;;
77864;SDS011;67061;48.524;9.040;2023-04-25T11:19:59;1.55;;;0.52;;
77864;SDS011;67061;48.524;9.040;2023-04-25T11:22:26;1.98;;;0.55;;
77864;SDS011;67061;48.524;9.040;2023-04-25T11:24:55;1.63;;;0.35;;
77864;SDS011;67061;48.524;9.040;2023-04-25T11:27:21;2.33;;;0.40;;
77864;SDS011;67061;48.524;9.040;2023-04-25T11:29:49;1.58;;;0.50;;
77864;SDS011;67061;48.524;9.040;2023-04-25T11:32:17;1.42;;;0.57;;
77864;SDS011;67061;48.524;9.040;2023-04-25T11:34:46;2.08;;;0.60;;
77864;SDS011;67061;48.524;9.040;2023-04-25T11:37:13;3.60;;;0.63;;
77864;SDS011;67061;48.524;9.040;2023-04-25T11:39:43;2.40;;;0.60;;
77864;SDS011;67061;48.524;9.040;2023-04-25T11:42:13;1.30;;;0.40;;
77864;SDS011;67061;48.524;9.040;2023-04-25T11:44:40;1.45;;;0.57;;
77864;SDS011;67061;48.524;9.040;2023-04-25T11:47:07;1.80;;;0.30;;
77864;SDS011;67061;48.524;9.040;2023-04-25T11:49:35;1.42;;;0.40;;
77864;SDS011;67061;48.524;9.040;2023-04-25T11:52:02;1.80;;;0.35;;
77864;SDS011;67061;48.524;9.040;2023-04-25T11:54:29;1.83;;;0.50;;
77864;SDS011;67061;48.524;9.040;2023-04-25T11:56:56;1.70;;;0.35;;
77864;SDS011;67061;48.524;9.040;2023-04-25T11:59:24;1.65;;;0.60;;
77864;SDS011;67061;48.524;9.040;2023-04-25T12:01:52;1.92;;;0.40;;
77864;SDS011;67061;48.524;9.040;2023-04-25T12:04:20;1.27;;;0.47;;
77864;SDS011;67061;48.524;9.040;2023-04-25T12:06:48;1.85;;;0.57;;
77864;SDS011;67061;48.524;9.040;2023-04-25T12:09:17;1.40;;;0.50;;
77864;SDS011;67061;48.524;9.040;2023-04-25T12:11:47;1.30;;;0.32;;
77864;SDS011;67061;48.524;9.040;2023-04-25T12:14:20;1.63;;;0.82;;
77864;SDS011;67061;48.524;9.040;2023-04-25T12:16:50;1.58;;;0.57;;
77864;SDS011;67061;48.524;9.040;2023-04-25T12:19:22;1.50;;;0.40;;
77864;SDS011;67061;48.524;9.040;2023-04-25T12:21:49;1.75;;;0.47;;
77864;SDS011;67061;48.524;9.040;2023-04-25T12:24:17;1.60;;;0.40;;
77864;SDS011;67061;48.524;9.040;2023-04-25T12:26:50;1.38;;;0.60;;
77864;SDS011;67061;48.524;9.040;2023-04-25T12:29:19;1.42;;;0.40;;
77864;SDS011;67061;48.524;9.040;2023-04-25T12:31:47;1.85;;;0.60;;
77864;SDS011;67061;48.524;9.040;2023-04-25T12:34:15;4.38;;;0.70;;
77864;SDS011;67061;48.524;9.040;2023-04-25T12:36:42;1.40;;;0.50;;
77864;SDS011;67061;48.524;9.040;2023-04-25T12:39:14;1.65;;;0.50;;
77864;SDS011;67061;48.524;9.040;2023-04-25T12:41:42;1.73;;;0.50;;
77864;SDS011;67061;48.524;9.040;2023-04-25T12:44:09;1.98;;;0.60;;
77864;SDS011;67061;48.524;9.040;2023-04-25T12:46:36;2.08;;;0.82;;
77864;SDS011;67061;48.524;9.040;2023-04-25T12:49:04;3.10;;;1.35;;
77864;SDS011;67061;48.524;9.040;2023-04-25T12:51:33;1.42;;;0.68;;
77864;SDS011;67061;48.524;9.040;2023-04-25T12:54:01;2.05;;;0.68;;
77864;SDS011;67061;48.524;9.040;2023-04-25T12:56:28;3.97;;;1.52;;
77864;SDS011;67061;48.524;9.040;2023-04-25T12:58:55;2.20;;;1.13;;
77864;SDS011;67061;48.524;9.040;2023-04-25T13:01:22;2.35;;;1.08;;
77864;SDS011;67061;48.524;9.040;2023-04-25T13:03:49;2.10;;;0.77;;
77864;SDS011;67061;48.524;9.040;2023-04-25T13:06:17;2.22;;;0.90;;
77864;SDS011;67061;48.524;9.040;2023-04-25T13:08:46;1.90;;;0.80;;
77864;SDS011;67061;48.524;9.040;2023-04-25T13:11:13;3.22;;;1.10;;
77864;SDS011;67061;48.524;9.040;2023-04-25T13:13:40;2.55;;;1.30;;
77864;SDS011;67061;48.524;9.040;2023-04-25T13:16:07;2.60;;;1.20;;
77864;SDS011;67061;48.524;9.040;2023-04-25T13:18:35;2.83;;;1.10;;
77864;SDS011;67061;48.524;9.040;2023-04-25T13:21:02;2.33;;;1.15;;
77864;SDS011;67061;48.524;9.040;2023-04-25T13:23:29;2.65;;;1.30;;
77864;SDS011;67061;48.524;9.040;2023-04-25T13:25:58;2.60;;;1.13;;
77864;SDS011;67061;48.524;9.040;2023-04-25T13:28:26;2.78;;;1.60;;
77864;SDS011;67061;48.524;9.040;2023-04-25T13:30:53;3.38;;;1.98;;
77864;SDS011;67061;48.524;9.040;2023-04-25T13:33:20;3.28;;;1.58;;
77864;SDS011;67061;48.524;9.040;2023-04-25T13:35:48;2.85;;;1.77;;
77864;SDS011;67061;48.524;9.040;2023-04-25T13:38:19;3.47;;;2.35;;
77864;SDS011;67061;48.524;9.040;2023-04-25T13:40:47;3.50;;;2.22;;
77864;SDS011;67061;48.524;9.040;2023-04-25T13:43:15;4.40;;;2.22;;
77864;SDS011;67061;48.524;9.040;2023-04-25T13:45:42;4.95;;;2.40;;
77864;SDS011;67061;48.524;9.040;2023-04-25T13:48:09;4.07;;;2.47;;
77864;SDS011;67061;48.524;9.040;2023-04-25T13:50:36;3.90;;;2.45;;
77864;SDS011;67061;48.524;9.040;2023-04-25T13:53:03;3.95;;;2.05;;
77864;SDS011;67061;48.524;9.040;2023-04-25T13:55:30;4.70;;;2.67;;
77864;SDS011;67061;48.524;9.040;2023-04-25T13:57:57;4.43;;;2.67;;
77864;SDS011;67061;48.524;9.040;2023-04-25T14:00:25;3.80;;;2.42;;
77864;SDS011;67061;48.524;9.040;2023-04-25T14:02:52;5.53;;;2.75;;
77864;SDS011;67061;48.524;9.040;2023-04-25T14:05:19;4.75;;;2.47;;
77864;SDS011;67061;48.524;9.040;2023-04-25T14:07:46;4.50;;;2.63;;
77864;SDS011;67061;48.524;9.040;2023-04-25T14:10:13;6.05;;;2.65;;
77864;SDS011;67061;48.524;9.040;2023-04-25T14:12:40;5.22;;;3.03;;
77864;SDS011;67061;48.524;9.040;2023-04-25T14:15:07;5.05;;;2.90;;
77864;SDS011;67061;48.524;9.040;2023-04-25T14:17:37;5.97;;;2.53;;
77864;SDS011;67061;48.524;9.040;2023-04-25T14:20:05;5.57;;;3.35;;
77864;SDS011;67061;48.524;9.040;2023-04-25T14:22:34;5.15;;;3.08;;
77864;SDS011;67061;48.524;9.040;2023-04-25T14:25:01;5.57;;;3.45;;
77864;SDS011;67061;48.524;9.040;2023-04-25T14:27:28;8.40;;;4.40;;
77864;SDS011;67061;48.524;9.040;2023-04-25T14:29:55;5.20;;;3.40;;
77864;SDS011;67061;48.524;9.040;2023-04-25T14:32:22;4.95;;;3.30;;
77864;SDS011;67061;48.524;9.040;2023-04-25T14:34:50;6.55;;;3.72;;
77864;SDS011;67061;48.524;9.040;2023-04-25T14:37:17;6.85;;;3.63;;
77864;SDS011;67061;48.524;9.040;2023-04-25T14:39:44;6.60;;;3.30;;
77864;SDS011;67061;48.524;9.040;2023-04-25T14:42:11;4.72;;;2.88;;
77864;SDS011;67061;48.524;9.040;2023-04-25T14:44:37;5.13;;;3.28;;
77864;SDS011;67061;48.524;9.040;2023-04-25T14:47:04;5.38;;;3.10;;
77864;SDS011;67061;48.524;9.040;2023-04-25T14:49:32;6.55;;;4.45;;
77864;SDS011;67061;48.524;9.040;2023-04-25T14:52:00;5.50;;;3.72;;
77864;SDS011;67061;48.524;9.040;2023-04-25T14:54:27;5.82;;;3.50;;
77864;SDS011;67061;48.524;9.040;2023-04-25T14:56:54;5.38;;;4.28;;
77864;SDS011;67061;48.524;9.040;2023-04-25T14:59:21;4.40;;;3.10;;
77864;SDS011;67061;48.524;9.040;2023-04-25T15:01:48;5.47;;;3.70;;
77864;SDS011;67061;48.524;9.040;2023-04-25T15:04:16;6.85;;;4.10;;
77864;SDS011;67061;48.524;9.040;2023-04-25T15:06:43;7.13;;;4.65;;
77864;SDS011;67061;48.524;9.040;2023-04-25T15:09:11;7.90;;;4.47;;
77864;SDS011;67061;48.524;9.040;2023-04-25T15:11:38;8.52;;;5.88;;
77864;SDS011;67061;48.524;9.040;2023-04-25T15:14:05;7.63;;;4.82;;
77864;SDS011;67061;48.524;9.040;2023-04-25T15:16:32;7.95;;;5.38;;
77864;SDS011;67061;48.524;9.040;2023-04-25T15:18:59;6.45;;;4.40;;
77864;SDS011;67061;48.524;9.040;2023-04-25T15:21:29;7.18;;;3.83;;
77864;SDS011;67061;48.524;9.040;2023-04-25T15:23:56;6.07;;;3.47;;
77864;SDS011;67061;48.524;9.040;2023-04-25T15:26:24;5.40;;;3.47;;
77864;SDS011;67061;48.524;9.040;2023-04-25T15:28:51;6.15;;;3.42;;
77864;SDS011;67061;48.524;9.040;2023-04-25T15:31:18;7.47;;;4.32;;
77864;SDS011;67061;48.524;9.040;2023-04-25T15:33:45;7.55;;;4.60;;
77864;SDS011;67061;48.524;9.040;2023-04-25T15:36:12;6.50;;;3.72;;
77864;SDS011;67061;48.524;9.040;2023-04-25T15:38:41;5.65;;;3.67;;
77864;SDS011;67061;48.524;9.040;2023-04-25T15:41:08;6.40;;;4.25;;
77864;SDS011;67061;48.524;9.040;2023-04-25T15:43:36;5.15;;;2.83;;
77864;SDS011;67061;48.524;9.040;2023-04-25T15:48:31;5.97;;;2.83;;
77864;SDS011;67061;48.524;9.040;2023-04-25T15:50:58;4.85;;;2.47;;
77864;SDS011;67061;48.524;9.040;2023-04-25T15:53:25;6.10;;;3.10;;
77864;SDS011;67061;48.524;9.040;2023-04-25T15:55:52;4.78;;;3.05;;
77864;SDS011;67061;48.524;9.040;2023-04-25T15:58:18;4.32;;;2.80;;
77864;SDS011;67061;48.524;9.040;2023-04-25T16:00:47;5.03;;;2.60;;
77864;SDS011;67061;48.524;9.040;2023-04-25T16:03:15;5.75;;;2.95;;
77864;SDS011;67061;48.524;9.040;2023-04-25T16:05:42;4.13;;;2.42;;
77864;SDS011;67061;48.524;9.040;2023-04-25T16:08:09;5.07;;;2.78;;
77864;SDS011;67061;48.524;9.040;2023-04-25T16:10:36;4.90;;;2.70;;
77864;SDS011;67061;48.524;9.040;2023-04-25T16:13:03;5.20;;;2.80;;
77864;SDS011;67061;48.524;9.040;2023-04-25T16:15:30;4.88;;;2.67;;
77864;SDS011;67061;48.524;9.040;2023-04-25T16:17:58;4.40;;;2.70;;
77864;SDS011;67061;48.524;9.040;2023-04-25T16:20:25;4.53;;;2.78;;
77864;SDS011;67061;48.524;9.040;2023-04-25T16:22:52;6.13;;;3.08;;